CheckWX is a tool to help pilots better visualize weather data.  It is not intended as a substitute for an official pre-flight weather briefing.

04:55:37 UTC

EGTK METAR
Oxford (Kidlington) Airport
Kidlington, United Kingdom
Current

10 hours ago

EGTK 261850Z 05012KT 9999 OVC010 14/13 Q1029
Observed
Jun-26 @ 18:50 UTC
Wind
  • 050° at 12 KTS
Visibility
10,000+ meters
Flight Rules
MVFR
Cloud Levels
  • Overcast at 1,000' AGL
Temperature
14°C / 57°F
Dewpoint
13°C / 55°F
Humidity
94%
Altimeter
30.38" Hg
Pressure
1028.92 hPa
Previous

11 hours ago

EGTK 261820Z 06015KT 9999 OVC011 14/13 Q1029
Observed
Jun-26 @ 18:20 UTC
Wind
  • 060° at 15 KTS
Visibility
10,000+ meters
Flight Rules
MVFR
Cloud Levels
  • Overcast at 1,100' AGL
Temperature
14°C / 57°F
Dewpoint
13°C / 55°F
Humidity
94%
Altimeter
30.38" Hg
Pressure
1028.92 hPa
Previous

11 hours ago

EGTK 261750Z 05015KT 9999 OVC010 15/13 Q1029
Observed
Jun-26 @ 17:50 UTC
Wind
  • 050° at 15 KTS
Visibility
10,000+ meters
Flight Rules
MVFR
Cloud Levels
  • Overcast at 1,000' AGL
Temperature
15°C / 59°F
Dewpoint
13°C / 55°F
Humidity
88%
Altimeter
30.38" Hg
Pressure
1028.92 hPa